Time;durP1;ratioP1;P1;durP2;ratioP2;P2;SDS_P1;SDS_P2;PMS_P1;PMS_P2;Temp;Humidity;BMP_temperature;BMP_pressure;BME280_temperature;BME280_humidity;BME280_pressure;Samples;Min_cycle;Max_cycle;Signal;HPM_P1;HPM_P2
2022/08/31 00:05:11;;;;;;;;;;;;;;;;;;5036985;28;20391;-82
2022/08/31 00:07:36;;;;;;;;;;;;;;;;;;5041214;28;19917;-83
2022/08/31 00:10:02;;;;;;;;;;;;;;;;;;5041397;28;19999;-84
2022/08/31 00:12:28;;;;;;;;;;;;;;;;;;5040274;28;19911;-81
2022/08/31 00:14:53;;;;;;;;;;;;;;;;;;5040873;28;19909;-84
2022/08/31 00:17:18;;;;;;;;;;;;;;;;;;5041229;28;20356;-82
2022/08/31 00:19:43;;;;;;;;;;;;;;;;;;5044378;28;19951;-83
2022/08/31 00:22:08;;;;;;;;;;;;;;;;;;5045700;28;19915;-82
2022/08/31 00:24:34;;;;;;;;;;;;;;;;;;5046622;28;19959;-83
2022/08/31 00:26:59;;;;;;;;;;;;;;;;;;5049263;28;20318;-82
2022/08/31 00:29:24;;;;;;;;;;;;;;;;;;5051131;28;20395;-82
2022/08/31 00:31:49;;;;;;;;;;;;;;;;;;5040845;28;19909;-82
2022/08/31 00:34:14;;;;;;;;;;;;;;;;;;5048474;28;19909;-82
2022/08/31 00:36:39;;;;;;;;;;;;;;;;;;5040818;28;20003;-83
2022/08/31 00:39:06;;;;;;;;;;;;;;;;;;5037186;28;19912;-83
2022/08/31 00:41:31;;;;;;;;;;;;;;;;;;5047213;28;19916;-82
2022/08/31 00:43:56;;;;;;;;;;;;;;;;;;5037805;28;20383;-81
2022/08/31 00:46:21;;;;;;;;;;;;;;;;;;5044630;28;20001;-81
2022/08/31 00:48:46;;;;;;;;;;;;;;;;;;5036725;28;20264;-81
2022/08/31 00:51:11;;;;;;;;;;;;;;;;;;5045941;28;20268;-81
2022/08/31 00:53:36;;;;;;;;;;;;;;;;;;5039862;28;19916;-81
2022/08/31 00:56:01;;;;;;;;;;;;;;;;;;5051825;28;19905;-81
2022/08/31 00:58:27;;;;;;;;;;;;;;;;;;5039422;28;19915;-81
2022/08/31 01:00:52;;;;;;;;;;;;;;;;;;5044154;28;19917;-81
2022/08/31 01:03:17;;;;;;;;;;;;;;;;;;5046974;28;19935;-81
2022/08/31 01:05:42;;;;;;;;;;;;;;;;;;5046087;28;19953;-80
2022/08/31 01:08:07;;;;;;;;;;;;;;;;;;5042826;28;19905;-80
2022/08/31 01:10:32;;;;;;;;;;;;;;;;;;5047656;28;19909;-80
2022/08/31 01:12:57;;;;;;;;;;;;;;;;;;5040136;28;19909;-80
2022/08/31 01:15:23;;;;;;;;;;;;;;;;;;5037277;28;19955;-80
2022/08/31 01:17:48;;;;;;;;;;;;;;;;;;5047649;28;19909;-80
2022/08/31 01:20:14;;;;;;;;;;;;;;;;;;5048196;28;19924;-81
2022/08/31 01:22:39;;;;;;;;;;;;;;;;;;5050318;28;20356;-81
2022/08/31 01:25:04;;;;;;;;;;;;;;;;;;5042793;28;19917;-81
2022/08/31 01:27:29;;;;;;;;;;;;;;;;;;5047533;28;19913;-81
2022/08/31 01:29:54;;;;;;;;;;;;;;;;;;5040064;28;19956;-81
2022/08/31 01:32:19;;;;;;;;;;;;;;;;;;5039451;28;19909;-80
2022/08/31 01:34:44;;;;;;;;;;;;;;;;;;5036497;28;19986;-81
2022/08/31 01:37:10;;;;;;;;;;;;;;;;;;5041791;28;20364;-82
2022/08/31 01:39:35;;;;;;;;;;;;;;;;;;5036521;28;19913;-82
2022/08/31 01:42:00;;;;;;;;;;;;;;;;;;5047473;28;19911;-83
2022/08/31 01:44:25;;;;;;;;;;;;;;;;;;5036526;28;19905;-85
2022/08/31 01:46:50;;;;;;;;;;;;;;;;;;5036378;28;20348;-84
2022/08/31 01:49:15;;;;;;;;;;;;;;;;;;5045277;28;19909;-82
2022/08/31 01:51:40;;;;;;;;;;;;;;;;;;5048323;28;19924;-81
2022/08/31 01:54:06;;;;;;;;;;;;;;;;;;5045004;28;19916;-81
2022/08/31 01:56:31;;;;;;;;;;;;;;;;;;5045647;28;19908;-82
2022/08/31 01:58:56;;;;;;;;;;;;;;;;;;5040438;28;19924;-82
2022/08/31 02:01:21;;;;;;;;;;;;;;;;;;5048324;28;19980;-80
2022/08/31 02:03:46;;;;;;;;;;;;;;;;;;5035510;28;19909;-80
2022/08/31 02:06:11;;;;;;;;;;;;;;;;;;5042827;28;19915;-80
2022/08/31 02:08:36;;;;;;;;;;;;;;;;;;5038438;28;20024;-79
2022/08/31 02:11:02;;;;;;;;;;;;;;;;;;5044666;28;20325;-79
2022/08/31 02:13:27;;;;;;;;;;;;;;;;;;5036067;28;20049;-80
2022/08/31 02:15:52;;;;;;;;;;;;;;;;;;5050286;28;19915;-79
2022/08/31 02:18:17;;;;;;;;;;;;;;;;;;5041851;28;19960;-79
2022/08/31 02:20:42;;;;;;;;;;;;;;;;;;5051358;28;19923;-79
2022/08/31 02:23:07;;;;;;;;;;;;;;;;;;5043880;28;20335;-79
2022/08/31 02:25:32;;;;;;;;;;;;;;;;;;5047552;28;19909;-79
2022/08/31 02:27:57;;;;;;;;;;;;;;;;;;5040736;28;19913;-79
2022/08/31 02:30:23;;;;;;;;;;;;;;;;;;5036980;28;20285;-79
2022/08/31 02:32:48;;;;;;;;;;;;;;;;;;5034851;28;19909;-79
2022/08/31 02:35:13;;;;;;;;;;;;;;;;;;5034075;28;19931;-79
2022/08/31 02:37:38;;;;;;;;;;;;;;;;;;5036336;28;19999;-79
2022/08/31 02:40:03;;;;;;;;;;;;;;;;;;5051076;28;20385;-79
2022/08/31 02:42:29;;;;;;;;;;;;;;;;;;5045794;28;19947;-79
2022/08/31 02:44:54;;;;;;;;;;;;;;;;;;5034502;28;19905;-79
2022/08/31 02:47:19;;;;;;;;;;;;;;;;;;5047321;28;20347;-79
2022/08/31 02:49:44;;;;;;;;;;;;;;;;;;5037686;28;19905;-79
2022/08/31 02:52:09;;;;;;;;;;;;;;;;;;5038364;28;19909;-79
2022/08/31 02:54:34;;;;;;;;;;;;;;;;;;5034921;28;19909;-79
2022/08/31 02:57:01;;;;;;;;;;;;;;;;;;5037817;28;20348;-79
2022/08/31 02:59:26;;;;;;;;;;;;;;;;;;5044588;28;19908;-79
2022/08/31 03:01:52;;;;;;;;;;;;;;;;;;5043177;28;20326;-80
2022/08/31 03:04:18;;;;;;;;;;;;;;;;;;5044947;28;19971;-80
2022/08/31 03:06:43;;;;;;;;;;;;;;;;;;5040605;28;20309;-81
2022/08/31 03:09:08;;;;;;;;;;;;;;;;;;5046484;28;19909;-80
2022/08/31 03:11:33;;;;;;;;;;;;;;;;;;5051302;28;19913;-81
2022/08/31 03:13:58;;;;;;;;;;;;;;;;;;5034927;28;19909;-81
2022/08/31 03:16:23;;;;;;;;;;;;;;;;;;5037211;28;19943;-81
2022/08/31 03:18:48;;;;;;;;;;;;;;;;;;5042334;28;20423;-81
2022/08/31 03:21:14;;;;;;;;;;;;;;;;;;5046510;28;19936;-82
2022/08/31 03:23:39;;;;;;;;;;;;;;;;;;5050876;28;19943;-81
2022/08/31 03:26:04;;;;;;;;;;;;;;;;;;5047251;28;20351;-82
2022/08/31 03:28:29;;;;;;;;;;;;;;;;;;5039929;28;19913;-82
2022/08/31 03:30:55;;;;;;;;;;;;;;;;;;5039862;28;19940;-83
2022/08/31 03:33:20;;;;;;;;;;;;;;;;;;5035006;28;19913;-85
2022/08/31 03:35:45;;;;;;;;;;;;;;;;;;5036201;28;19905;-85
2022/08/31 03:38:11;;;;;;;;;;;;;;;;;;5043372;28;20329;-83
2022/08/31 03:40:36;;;;;;;;;;;;;;;;;;5045718;28;19969;-84
2022/08/31 03:43:01;;;;;;;;;;;;;;;;;;5037967;28;19912;-86
2022/08/31 03:45:27;;;;;;;;;;;;;;;;;;5035535;28;19908;-79
2022/08/31 03:47:52;;;;;;;;;;;;;;;;;;5045954;28;19931;-79
2022/08/31 03:50:17;;;;;;;;;;;;;;;;;;5045313;28;19958;-79
2022/08/31 03:52:42;;;;;;;;;;;;;;;;;;5043249;28;19915;-78
2022/08/31 03:55:07;;;;;;;;;;;;;;;;;;5040771;28;20310;-78
2022/08/31 03:57:33;;;;;;;;;;;;;;;;;;5041519;28;19916;-79
2022/08/31 03:59:59;;;;;;;;;;;;;;;;;;5038990;28;20335;-79
2022/08/31 04:02:24;;;;;;;;;;;;;;;;;;5045847;28;19920;-79
2022/08/31 04:04:50;;;;;;;;;;;;;;;;;;5041807;28;19909;-80
2022/08/31 04:07:15;;;;;;;;;;;;;;;;;;5038394;28;19909;-79
2022/08/31 04:09:40;;;;;;;;;;;;;;;;;;5054258;28;19955;-79
2022/08/31 04:12:05;;;;;;;;;;;;;;;;;;5052188;28;19935;-79
2022/08/31 04:14:30;;;;;;;;;;;;;;;;;;5051566;28;19909;-79
2022/08/31 04:16:55;;;;;;;;;;;;;;;;;;5040450;28;19982;-79
2022/08/31 04:19:23;;;;;;;;;;;;;;;;;;5039913;28;19909;-79
2022/08/31 04:21:48;;;;;;;;;;;;;;;;;;5044669;28;20265;-79
2022/08/31 04:24:14;;;;;;;;;;;;;;;;;;5046766;28;20007;-79
2022/08/31 04:26:39;;;;;;;;;;;;;;;;;;5045389;28;19905;-79
2022/08/31 04:29:06;;;;;;;;;;;;;;;;;;5048743;28;19909;-79
2022/08/31 04:31:31;;;;;;;;;;;;;;;;;;5041591;28;19916;-81
2022/08/31 04:33:56;;;;;;;;;;;;;;;;;;5036635;28;19909;-83
2022/08/31 04:36:21;;;;;;;;;;;;;;;;;;5043913;28;19909;-87
2022/08/31 04:38:46;;;;;;;;;;;;;;;;;;5052578;28;19904;-86
2022/08/31 04:41:12;;;;;;;;;;;;;;;;;;5041554;28;19960;-87
2022/08/31 04:43:37;;;;;;;;;;;;;;;;;;5036616;28;20344;-85
2022/08/31 04:46:02;;;;;;;;;;;;;;;;;;5044720;28;19913;-86
2022/08/31 04:48:27;;;;;;;;;;;;;;;;;;5044836;28;19956;-86
2022/08/31 04:50:53;;;;;;;;;;;;;;;;;;5048604;28;19920;-86
2022/08/31 04:53:19;;;;;;;;;;;;;;;;;;5053236;28;19920;-87
2022/08/31 04:55:44;;;;;;;;;;;;;;;;;;5049551;28;19908;-87
2022/08/31 04:58:09;;;;;;;;;;;;;;;;;;5040304;28;19913;-84
2022/08/31 05:00:35;;;;;;;;;;;;;;;;;;5042131;28;19924;-85
2022/08/31 05:03:01;;;;;;;;;;;;;;;;;;5046368;28;19995;-85
2022/08/31 05:05:26;;;;;;;;;;;;;;;;;;5042447;28;19944;-87
2022/08/31 05:07:51;;;;;;;;;;;;;;;;;;5044123;28;19913;-86
2022/08/31 05:10:16;;;;;;;;;;;;;;;;;;5047902;28;19909;-86
2022/08/31 05:12:43;;;;;;;;;;;;;;;;;;5038646;28;19908;-86
2022/08/31 05:15:08;;;;;;;;;;;;;;;;;;5037422;28;19912;-87
2022/08/31 05:17:33;;;;;;;;;;;;;;;;;;5043231;28;20368;-85
2022/08/31 05:19:58;;;;;;;;;;;;;;;;;;5046228;28;19917;-86
2022/08/31 05:22:23;;;;;;;;;;;;;;;;;;5049838;28;19967;-86
2022/08/31 05:24:48;;;;;;;;;;;;;;;;;;5037098;28;19932;-86
2022/08/31 05:27:14;;;;;;;;;;;;;;;;;;5039409;28;19912;-85
2022/08/31 05:29:39;;;;;;;;;;;;;;;;;;5038325;28;19915;-86
2022/08/31 05:32:04;;;;;;;;;;;;;;;;;;5036540;28;20386;-87
2022/08/31 05:34:29;;;;;;;;;;;;;;;;;;5047896;28;20348;-85
2022/08/31 05:36:54;;;;;;;;;;;;;;;;;;5038845;28;19905;-87
2022/08/31 05:39:19;;;;;;;;;;;;;;;;;;5040341;28;19926;-87
2022/08/31 05:41:45;;;;;;;;;;;;;;;;;;5044755;28;20439;-86
2022/08/31 05:44:10;;;;;;;;;;;;;;;;;;5041977;28;19912;-86
2022/08/31 05:46:35;;;;;;;;;;;;;;;;;;5045942;28;19909;-87
2022/08/31 05:49:00;;;;;;;;;;;;;;;;;;5043507;28;19952;-87
2022/08/31 05:51:26;;;;;;;;;;;;;;;;;;5046386;28;19908;-87
2022/08/31 05:53:51;;;;;;;;;;;;;;;;;;5045515;28;19913;-87
2022/08/31 05:56:16;;;;;;;;;;;;;;;;;;5043809;28;19963;-87
2022/08/31 05:58:41;;;;;;;;;;;;;;;;;;5047494;28;20253;-86
2022/08/31 06:01:06;;;;;;;;;;;;;;;;;;5043746;28;19924;-86
2022/08/31 06:03:31;;;;;;;;;;;;;;;;;;5049342;28;19909;-77
2022/08/31 06:05:57;;;;;;;;;;;;;;;;;;5050857;28;19908;-77
2022/08/31 06:08:22;;;;;;;;;;;;;;;;;;5042517;28;19913;-77
2022/08/31 06:10:47;;;;;;;;;;;;;;;;;;5042101;28;19928;-77
2022/08/31 06:13:13;;;;;;;;;;;;;;;;;;5048065;28;19939;-77
2022/08/31 06:15:38;;;;;;;;;;;;;;;;;;5044025;28;21581;-77
2022/08/31 06:18:03;;;;;;;;;;;;;;;;;;5038798;28;19909;-77
2022/08/31 06:20:28;;;;;;;;;;;;;;;;;;5045566;28;20372;-77
2022/08/31 06:22:53;;;;;;;;;;;;;;;;;;5043740;28;19908;-76
2022/08/31 06:25:18;;;;;;;;;;;;;;;;;;5047160;28;20012;-78
2022/08/31 06:27:48;;;;;;;;;;;;;;;;;;5036148;28;19908;-77
2022/08/31 06:30:18;;;;;;;;;;;;;;;;;;5037101;28;20356;-77
2022/08/31 06:32:43;;;;;;;;;;;;;;;;;;5041152;28;19909;-77
2022/08/31 06:35:08;;;;;;;;;;;;;;;;;;5034696;28;19912;-78
2022/08/31 06:37:33;;;;;;;;;;;;;;;;;;5047748;28;19916;-78
2022/08/31 06:39:59;;;;;;;;;;;;;;;;;;5035776;28;20465;-78
2022/08/31 06:42:24;;;;;;;;;;;;;;;;;;5039335;28;19920;-78
2022/08/31 06:44:49;;;;;;;;;;;;;;;;;;5036373;28;20383;-78
2022/08/31 06:47:15;;;;;;;;;;;;;;;;;;5039564;28;19909;-78
2022/08/31 06:49:40;;;;;;;;;;;;;;;;;;5036986;28;19909;-78
2022/08/31 06:52:05;;;;;;;;;;;;;;;;;;5047142;28;19962;-78
2022/08/31 06:54:30;;;;;;;;;;;;;;;;;;5038040;28;20253;-78
2022/08/31 06:56:55;;;;;;;;;;;;;;;;;;5037768;28;19909;-78
2022/08/31 06:59:20;;;;;;;;;;;;;;;;;;5040138;28;20418;-78
2022/08/31 07:01:45;;;;;;;;;;;;;;;;;;5040087;28;20376;-78
2022/08/31 07:04:11;;;;;;;;;;;;;;;;;;5048331;28;20423;-78
2022/08/31 07:06:36;;;;;;;;;;;;;;;;;;5040250;28;20428;-78
2022/08/31 07:09:02;;;;;;;;;;;;;;;;;;5045209;28;19905;-78
2022/08/31 07:11:27;;;;;;;;;;;;;;;;;;5041776;28;19908;-78
2022/08/31 07:13:53;;;;;;;;;;;;;;;;;;5040294;28;19915;-79
2022/08/31 07:16:19;;;;;;;;;;;;;;;;;;5038411;28;20273;-78
2022/08/31 07:18:45;;;;;;;;;;;;;;;;;;5045250;28;19905;-78
2022/08/31 07:21:10;;;;;;;;;;;;;;;;;;5038218;28;20016;-79
2022/08/31 07:23:35;;;;;;;;;;;;;;;;;;5036971;28;19987;-79
2022/08/31 07:26:00;;;;;;;;;;;;;;;;;;5034447;28;19908;-79
2022/08/31 07:28:28;;;;;;;;;;;;;;;;;;5041675;28;19959;-79
2022/08/31 07:30:53;;;;;;;;;;;;;;;;;;5045959;28;20351;-79
2022/08/31 07:33:18;;;;;;;;;;;;;;;;;;5051535;28;20003;-79
2022/08/31 07:35:43;;;;;;;;;;;;;;;;;;5046757;28;19963;-79
2022/08/31 07:43:36;;;;;;;;;;;;;;;;;;5028261;28;19967;-79
2022/08/31 07:46:01;;;;;;;;;;;;;;;;;;5041672;28;19909;-80
2022/08/31 07:48:27;;;;;;;;;;;;;;;;;;5047867;28;19908;-80
2022/08/31 07:50:53;;;;;;;;;;;;;;;;;;5048861;28;19912;-79
2022/08/31 07:53:19;;;;;;;;;;;;;;;;;;5046503;28;19915;-79
2022/08/31 07:55:46;;;;;;;;;;;;;;;;;;5049466;28;19963;-80
2022/08/31 07:58:14;;;;;;;;;;;;;;;;;;5045272;28;20265;-80
2022/08/31 08:00:42;;;;;;;;;;;;;;;;;;5040863;28;19908;-80
2022/08/31 08:03:11;;;;;;;;;;;;;;;;;;5050656;28;20364;-80
2022/08/31 08:05:40;;;;;;;;;;;;;;;;;;5042075;28;20273;-80
2022/08/31 08:08:05;;;;;;;;;;;;;;;;;;5039602;28;19912;-81
2022/08/31 08:10:32;;;;;;;;;;;;;;;;;;5037358;28;19908;-82
2022/08/31 08:13:02;;;;;;;;;;;;;;;;;;5041800;28;19908;-82
2022/08/31 08:15:27;;;;;;;;;;;;;;;;;;5042860;28;19999;-83
2022/08/31 08:17:53;;;;;;;;;;;;;;;;;;5033632;28;19999;-80
2022/08/31 08:20:18;;;;;;;;;;;;;;;;;;5044433;28;19959;-80
2022/08/31 08:22:43;;;;;;;;;;;;;;;;;;5048621;28;19934;-85
2022/08/31 08:25:08;;;;;;;;;;;;;;;;;;5046494;28;19963;-85
2022/08/31 08:27:34;;;;;;;;;;;;;;;;;;5046854;28;20342;-81
2022/08/31 08:29:59;;;;;;;;;;;;;;;;;;5043912;28;19913;-80
2022/08/31 08:32:24;;;;;;;;;;;;;;;;;;5040650;28;19912;-80
2022/08/31 08:34:49;;;;;;;;;;;;;;;;;;5039349;28;20241;-82
2022/08/31 08:37:15;;;;;;;;;;;;;;;;;;5050540;28;20300;-84
2022/08/31 08:39:41;;;;;;;;;;;;;;;;;;5042268;28;19917;-84
2022/08/31 08:42:07;;;;;;;;;;;;;;;;;;5048696;28;19939;-85
2022/08/31 08:44:32;;;;;;;;;;;;;;;;;;5042746;28;19917;-82
2022/08/31 08:46:58;;;;;;;;;;;;;;;;;;5046031;28;20332;-84
2022/08/31 08:49:23;;;;;;;;;;;;;;;;;;5047596;28;19917;-83
2022/08/31 08:51:48;;;;;;;;;;;;;;;;;;5039956;28;20039;-83
2022/08/31 08:54:13;;;;;;;;;;;;;;;;;;5039695;28;19919;-84
2022/08/31 08:56:47;;;;;;;;;;;;;;;;;;5048540;28;19909;-84
2022/08/31 08:59:12;;;;;;;;;;;;;;;;;;5048909;28;19990;-84
2022/08/31 09:01:37;;;;;;;;;;;;;;;;;;5035923;28;19972;-83
2022/08/31 09:04:04;;;;;;;;;;;;;;;;;;5042799;28;19995;-84
2022/08/31 09:06:29;;;;;;;;;;;;;;;;;;5042941;28;19942;-84
2022/08/31 09:08:55;;;;;;;;;;;;;;;;;;5042372;28;19921;-83
2022/08/31 09:11:21;;;;;;;;;;;;;;;;;;5044000;28;19923;-84
2022/08/31 09:13:47;;;;;;;;;;;;;;;;;;5042570;28;19913;-83
2022/08/31 09:16:13;;;;;;;;;;;;;;;;;;5051665;28;19909;-84
2022/08/31 09:18:39;;;;;;;;;;;;;;;;;;5045543;28;20430;-85
2022/08/31 09:21:04;;;;;;;;;;;;;;;;;;5045257;28;20011;-79
2022/08/31 09:23:29;;;;;;;;;;;;;;;;;;5052469;28;20331;-79
2022/08/31 09:25:57;;;;;;;;;;;;;;;;;;5048962;28;19940;-79
2022/08/31 09:28:22;;;;;;;;;;;;;;;;;;5042426;28;19920;-79
2022/08/31 09:30:50;;;;;;;;;;;;;;;;;;5040081;28;19909;-79
2022/08/31 09:33:15;;;;;;;;;;;;;;;;;;5037857;28;20283;-79
2022/08/31 09:35:41;;;;;;;;;;;;;;;;;;5039184;28;20334;-79
2022/08/31 09:38:09;;;;;;;;;;;;;;;;;;5043435;28;20380;-79
2022/08/31 09:40:37;;;;;;;;;;;;;;;;;;5042621;28;19924;-79
2022/08/31 09:43:03;;;;;;;;;;;;;;;;;;5037442;28;19912;-79
2022/08/31 09:45:35;;;;;;;;;;;;;;;;;;5038162;28;20322;-78
2022/08/31 09:48:00;;;;;;;;;;;;;;;;;;5035704;28;20272;-77
2022/08/31 09:50:25;;;;;;;;;;;;;;;;;;5040606;28;19909;-79
2022/08/31 09:55:34;;;;;;;;;;;;;;;;;;5036948;28;19916;-79
2022/08/31 09:58:03;;;;;;;;;;;;;;;;;;5046747;28;19939;-79
2022/08/31 10:00:30;;;;;;;;;;;;;;;;;;5044336;28;19912;-79
2022/08/31 10:02:55;;;;;;;;;;;;;;;;;;5047884;28;19920;-79
2022/08/31 10:05:20;;;;;;;;;;;;;;;;;;5037446;28;19909;-79
2022/08/31 10:07:46;;;;;;;;;;;;;;;;;;5044571;28;20015;-79
2022/08/31 10:10:11;;;;;;;;;;;;;;;;;;5046330;28;19912;-82
2022/08/31 10:12:36;;;;;;;;;;;;;;;;;;5045348;28;20004;-82
2022/08/31 10:15:02;;;;;;;;;;;;;;;;;;5049236;28;20295;-80
2022/08/31 10:17:28;;;;;;;;;;;;;;;;;;5041405;28;20336;-81
2022/08/31 10:19:53;;;;;;;;;;;;;;;;;;5037286;28;19912;-81
2022/08/31 10:22:24;;;;;;;;;;;;;;;;;;5038993;28;19955;-81
2022/08/31 10:24:49;;;;;;;;;;;;;;;;;;5047513;28;19925;-81
2022/08/31 10:27:14;;;;;;;;;;;;;;;;;;5034044;28;19931;-81
2022/08/31 10:29:40;;;;;;;;;;;;;;;;;;5040270;28;19912;-81
2022/08/31 10:32:05;;;;;;;;;;;;;;;;;;5046133;28;19955;-81
2022/08/31 10:37:14;;;;;;;;;;;;;;;;;;5044117;28;19932;-83
2022/08/31 10:39:40;;;;;;;;;;;;;;;;;;5045590;28;20348;-82
2022/08/31 10:42:05;;;;;;;;;;;;;;;;;;5035915;28;19924;-81
2022/08/31 10:44:31;;;;;;;;;;;;;;;;;;5039361;28;19921;-82
2022/08/31 10:47:01;;;;;;;;;;;;;;;;;;5041579;28;19909;-83
2022/08/31 10:49:26;;;;;;;;;;;;;;;;;;5041377;28;20419;-82
2022/08/31 10:51:51;;;;;;;;;;;;;;;;;;5046006;28;19998;-83
2022/08/31 10:54:20;;;;;;;;;;;;;;;;;;5043905;28;20004;-83
2022/08/31 10:56:49;;;;;;;;;;;;;;;;;;5039229;28;20359;-83
2022/08/31 10:59:14;;;;;;;;;;;;;;;;;;5039372;28;19909;-83
2022/08/31 11:01:39;;;;;;;;;;;;;;;;;;5042648;28;19936;-83
2022/08/31 11:04:05;;;;;;;;;;;;;;;;;;5045916;28;19912;-83
2022/08/31 11:06:30;;;;;;;;;;;;;;;;;;5046771;28;19909;-83
2022/08/31 11:08:56;;;;;;;;;;;;;;;;;;5039735;28;19995;-83
2022/08/31 11:11:23;;;;;;;;;;;;;;;;;;5044478;28;20356;-83
2022/08/31 11:13:50;;;;;;;;;;;;;;;;;;5040068;28;19979;-83
2022/08/31 11:16:16;;;;;;;;;;;;;;;;;;5050414;28;19908;-78
2022/08/31 11:18:41;;;;;;;;;;;;;;;;;;5045368;28;19962;-79
2022/08/31 11:21:07;;;;;;;;;;;;;;;;;;5034082;28;19925;-84
2022/08/31 11:23:32;;;;;;;;;;;;;;;;;;5033939;28;19917;-84
2022/08/31 11:25:57;;;;;;;;;;;;;;;;;;5039869;28;19908;-84
2022/08/31 11:28:27;;;;;;;;;;;;;;;;;;5041529;28;19905;-85
2022/08/31 11:30:53;;;;;;;;;;;;;;;;;;5038067;28;19952;-83
2022/08/31 11:33:18;;;;;;;;;;;;;;;;;;5035614;28;19948;-83
2022/08/31 11:35:43;;;;;;;;;;;;;;;;;;5049579;28;19908;-84
2022/08/31 11:38:09;;;;;;;;;;;;;;;;;;5048808;28;19958;-84
2022/08/31 11:40:43;;;;;;;;;;;;;;;;;;5036569;28;19924;-84
2022/08/31 11:43:09;;;;;;;;;;;;;;;;;;5042216;28;19931;-86
2022/08/31 11:45:36;;;;;;;;;;;;;;;;;;5041832;28;19912;-84
2022/08/31 11:48:01;;;;;;;;;;;;;;;;;;5048007;28;19916;-83
2022/08/31 11:50:27;;;;;;;;;;;;;;;;;;5041879;28;19905;-85
2022/08/31 11:52:52;;;;;;;;;;;;;;;;;;5038557;28;20003;-84
2022/08/31 11:55:18;;;;;;;;;;;;;;;;;;5036151;28;19912;-84
2022/08/31 11:57:43;;;;;;;;;;;;;;;;;;5039911;28;19905;-84
2022/08/31 12:00:09;;;;;;;;;;;;;;;;;;5042200;28;20043;-84
2022/08/31 12:02:34;;;;;;;;;;;;;;;;;;5034451;28;20602;-84
2022/08/31 12:05:01;;;;;;;;;;;;;;;;;;5036657;28;20580;-85
2022/08/31 12:07:27;;;;;;;;;;;;;;;;;;5037901;28;19916;-84
2022/08/31 12:09:52;;;;;;;;;;;;;;;;;;5034313;28;19927;-85
2022/08/31 12:12:18;;;;;;;;;;;;;;;;;;5047860;28;20349;-85
2022/08/31 12:14:50;;;;;;;;;;;;;;;;;;5032439;28;20395;-83
2022/08/31 12:17:20;;;;;;;;;;;;;;;;;;5030341;28;19915;-82
2022/08/31 12:20:01;;;;;;;;;;;;;;;;;;5024700;28;19996;-83
2022/08/31 12:25:10;;;;;;;;;;;;;;;;;;5037671;28;19959;-83
2022/08/31 12:27:35;;;;;;;;;;;;;;;;;;5039271;28;19913;-83
2022/08/31 12:30:00;;;;;;;;;;;;;;;;;;5047515;28;19909;-84
2022/08/31 12:32:25;;;;;;;;;;;;;;;;;;5048633;28;19904;-84
2022/08/31 12:34:51;;;;;;;;;;;;;;;;;;5047277;28;19944;-82
2022/08/31 12:37:16;;;;;;;;;;;;;;;;;;5038253;28;19908;-83
2022/08/31 12:39:41;;;;;;;;;;;;;;;;;;5039679;28;19916;-86
2022/08/31 12:42:06;;;;;;;;;;;;;;;;;;5039660;28;20284;-83
2022/08/31 12:44:31;;;;;;;;;;;;;;;;;;5032756;28;19916;-84
2022/08/31 12:46:56;;;;;;;;;;;;;;;;;;5043145;28;19912;-85
2022/08/31 12:49:22;;;;;;;;;;;;;;;;;;5034251;28;20387;-84
2022/08/31 12:51:47;;;;;;;;;;;;;;;;;;5037155;28;20776;-84
2022/08/31 12:54:12;;;;;;;;;;;;;;;;;;5043341;28;19908;-84
2022/08/31 12:56:37;;;;;;;;;;;;;;;;;;5043047;28;19909;-85
2022/08/31 12:59:02;;;;;;;;;;;;;;;;;;5045168;28;19908;-84
2022/08/31 13:01:27;;;;;;;;;;;;;;;;;;5038042;28;19913;-87
2022/08/31 13:03:53;;;;;;;;;;;;;;;;;;5045289;28;19967;-85
2022/08/31 13:06:18;;;;;;;;;;;;;;;;;;5034913;28;19905;-84
2022/08/31 13:08:43;;;;;;;;;;;;;;;;;;5033143;28;19909;-84
2022/08/31 13:11:08;;;;;;;;;;;;;;;;;;5042095;28;19908;-84
2022/08/31 13:13:33;;;;;;;;;;;;;;;;;;5031692;28;19905;-85
2022/08/31 13:15:58;;;;;;;;;;;;;;;;;;5042737;28;19954;-85
2022/08/31 13:18:23;;;;;;;;;;;;;;;;;;5040893;28;19916;-85
2022/08/31 13:20:49;;;;;;;;;;;;;;;;;;5030709;28;19939;-84
2022/08/31 13:23:14;;;;;;;;;;;;;;;;;;5032449;28;19925;-83
2022/08/31 13:25:39;;;;;;;;;;;;;;;;;;5044543;28;19908;-84
2022/08/31 13:28:06;;;;;;;;;;;;;;;;;;5041584;28;20314;-85
2022/08/31 13:30:33;;;;;;;;;;;;;;;;;;5041138;28;20360;-84
2022/08/31 13:32:58;;;;;;;;;;;;;;;;;;5034182;28;19964;-84
2022/08/31 13:35:23;;;;;;;;;;;;;;;;;;5037703;28;20259;-83
2022/08/31 13:37:52;;;;;;;;;;;;;;;;;;5034359;28;19959;-84
2022/08/31 13:40:17;;;;;;;;;;;;;;;;;;5034670;28;19916;-84
2022/08/31 13:42:44;;;;;;;;;;;;;;;;;;5035243;28;20375;-83
2022/08/31 13:45:09;;;;;;;;;;;;;;;;;;5033960;28;19905;-80
2022/08/31 13:47:34;;;;;;;;;;;;;;;;;;5035314;28;19909;-84
2022/08/31 13:49:59;;;;;;;;;;;;;;;;;;5036985;28;20200;-85
2022/08/31 13:52:25;;;;;;;;;;;;;;;;;;5039742;28;19927;-84
2022/08/31 13:54:50;;;;;;;;;;;;;;;;;;5033486;28;20352;-85
2022/08/31 13:57:16;;;;;;;;;;;;;;;;;;5030903;28;19912;-80
2022/08/31 13:59:41;;;;;;;;;;;;;;;;;;5035600;28;19909;-85
2022/08/31 14:02:06;;;;;;;;;;;;;;;;;;5034236;28;19943;-85
2022/08/31 14:07:22;;;;;;;;;;;;;;;;;;5033909;28;19927;-84
2022/08/31 14:09:47;;;;;;;;;;;;;;;;;;5049268;28;19915;-85
2022/08/31 14:12:12;;;;;;;;;;;;;;;;;;5035442;28;19909;-85
2022/08/31 14:14:38;;;;;;;;;;;;;;;;;;5048843;28;20361;-85
2022/08/31 14:17:04;;;;;;;;;;;;;;;;;;5034939;28;19909;-84
2022/08/31 14:19:29;;;;;;;;;;;;;;;;;;5041302;28;19905;-83
2022/08/31 14:21:54;;;;;;;;;;;;;;;;;;5043357;28;20055;-85
2022/08/31 14:24:19;;;;;;;;;;;;;;;;;;5032149;28;19921;-83
2022/08/31 14:26:44;;;;;;;;;;;;;;;;;;5031872;28;20391;-84
2022/08/31 14:29:10;;;;;;;;;;;;;;;;;;5030837;28;19905;-85
2022/08/31 14:31:38;;;;;;;;;;;;;;;;;;5032599;28;20365;-84
2022/08/31 14:34:06;;;;;;;;;;;;;;;;;;5042126;28;20283;-85
2022/08/31 14:36:31;;;;;;;;;;;;;;;;;;5027446;28;19932;-80
2022/08/31 14:38:57;;;;;;;;;;;;;;;;;;5039082;28;19913;-86
2022/08/31 14:41:22;;;;;;;;;;;;;;;;;;5047121;28;19913;-85
2022/08/31 14:43:47;;;;;;;;;;;;;;;;;;5036000;28;19905;-84
2022/08/31 14:46:14;;;;;;;;;;;;;;;;;;5044728;28;19913;-84
2022/08/31 14:48:41;;;;;;;;;;;;;;;;;;5041562;28;19905;-85
2022/08/31 14:51:07;;;;;;;;;;;;;;;;;;5045477;28;19908;-85
2022/08/31 14:53:35;;;;;;;;;;;;;;;;;;5040958;28;20331;-85
2022/08/31 14:56:01;;;;;;;;;;;;;;;;;;5045395;28;20433;-85
2022/08/31 14:58:26;;;;;;;;;;;;;;;;;;5047024;28;20348;-85
2022/08/31 15:00:51;;;;;;;;;;;;;;;;;;5044058;28;19916;-85
2022/08/31 15:03:16;;;;;;;;;;;;;;;;;;5045124;28;19905;-84
2022/08/31 15:05:41;;;;;;;;;;;;;;;;;;5041731;28;19909;-85
2022/08/31 15:08:07;;;;;;;;;;;;;;;;;;5039155;28;19909;-85
2022/08/31 15:10:32;;;;;;;;;;;;;;;;;;5046429;28;19938;-85
2022/08/31 15:13:06;;;;;;;;;;;;;;;;;;5041313;28;19950;-84
2022/08/31 15:15:31;;;;;;;;;;;;;;;;;;5039705;28;19916;-85
2022/08/31 15:17:56;;;;;;;;;;;;;;;;;;5037442;28;19905;-85
2022/08/31 15:20:21;;;;;;;;;;;;;;;;;;5038542;28;19913;-80
2022/08/31 15:22:47;;;;;;;;;;;;;;;;;;5034999;28;19909;-85
2022/08/31 15:25:12;;;;;;;;;;;;;;;;;;5038272;28;19925;-84
2022/08/31 15:27:38;;;;;;;;;;;;;;;;;;5042028;28;20340;-84
2022/08/31 15:30:06;;;;;;;;;;;;;;;;;;5041199;28;19909;-84
2022/08/31 15:32:31;;;;;;;;;;;;;;;;;;5045584;28;19904;-84
2022/08/31 15:34:58;;;;;;;;;;;;;;;;;;5039004;28;20372;-81
2022/08/31 15:37:24;;;;;;;;;;;;;;;;;;5038381;28;19915;-83
2022/08/31 15:39:50;;;;;;;;;;;;;;;;;;5038766;28;20155;-84
2022/08/31 15:42:19;;;;;;;;;;;;;;;;;;5037906;28;20357;-83
2022/08/31 15:44:44;;;;;;;;;;;;;;;;;;5025774;28;20410;-83
2022/08/31 15:49:54;;;;;;;;;;;;;;;;;;5033123;28;20287;-84
2022/08/31 15:52:19;;;;;;;;;;;;;;;;;;5033077;28;19913;-83
2022/08/31 15:54:45;;;;;;;;;;;;;;;;;;5038336;28;19911;-83
2022/08/31 15:57:10;;;;;;;;;;;;;;;;;;5041099;28;19909;-83
2022/08/31 15:59:36;;;;;;;;;;;;;;;;;;5048365;28;19952;-85
2022/08/31 16:02:01;;;;;;;;;;;;;;;;;;5046137;28;19913;-83
2022/08/31 16:04:26;;;;;;;;;;;;;;;;;;5045225;28;19905;-84
2022/08/31 16:06:51;;;;;;;;;;;;;;;;;;5050316;28;20315;-83
2022/08/31 16:09:16;;;;;;;;;;;;;;;;;;5035536;28;19916;-84
2022/08/31 16:11:42;;;;;;;;;;;;;;;;;;5044518;28;19904;-83
2022/08/31 16:14:10;;;;;;;;;;;;;;;;;;5034487;28;20400;-84
2022/08/31 16:16:35;;;;;;;;;;;;;;;;;;5043530;28;20073;-83
2022/08/31 16:19:03;;;;;;;;;;;;;;;;;;5047569;28;20363;-83
2022/08/31 16:21:28;;;;;;;;;;;;;;;;;;5041308;28;20352;-83
2022/08/31 16:23:58;;;;;;;;;;;;;;;;;;5050289;28;19924;-81
2022/08/31 16:26:23;;;;;;;;;;;;;;;;;;5039878;28;20004;-83
2022/08/31 16:28:48;;;;;;;;;;;;;;;;;;5038495;28;20039;-83
2022/08/31 16:31:13;;;;;;;;;;;;;;;;;;5038269;28;19912;-84
2022/08/31 16:33:40;;;;;;;;;;;;;;;;;;5035382;28;19959;-84
2022/08/31 16:36:05;;;;;;;;;;;;;;;;;;5037810;28;19913;-84
2022/08/31 16:38:30;;;;;;;;;;;;;;;;;;5041042;28;19928;-84
2022/08/31 16:40:55;;;;;;;;;;;;;;;;;;5038200;28;20364;-84
2022/08/31 16:43:21;;;;;;;;;;;;;;;;;;5041306;28;20378;-84
2022/08/31 16:45:46;;;;;;;;;;;;;;;;;;5039955;28;19905;-84
2022/08/31 16:50:55;;;;;;;;;;;;;;;;;;5039253;28;19935;-84
2022/08/31 16:53:20;;;;;;;;;;;;;;;;;;5050919;28;19909;-85
2022/08/31 16:55:48;;;;;;;;;;;;;;;;;;5036847;28;19912;-84
2022/08/31 16:58:14;;;;;;;;;;;;;;;;;;5035962;28;19949;-85
2022/08/31 17:00:39;;;;;;;;;;;;;;;;;;5045942;28;19952;-84